NFFN/NAN METAR and TAF weather

Enter ICAO airport designator
Station Type Date Time Source
NFFN METAR 2019/12/05 23:00 UTC NOAA

NFFN 052300Z 30011KT 9999 FEW030 BKN300 31/22 Q1011 NOSIG


Station Type Date Time Source
NFFN Decoded METAR 2019/12/05 23:00 UTC NOAA

Nandi, Fiji (NFFN) 17-45S 177-27E 18M
Dec 05, 2019 - 06:00 PM EST / 2019.12.05 2300 UTC
Wind: from the WNW (300 degrees) at 13 MPH (11 KT):0
Visibility: greater than 7 mile(s):0
Sky conditions: mostly cloudy
Temperature: 87 F (31 C)
Heat index: 92.3 F (33.5 C):1
Dew Point: 71 F (22 C)
Relative Humidity: 58%
Pressure (altimeter): 29.85 in. Hg (1011 hPa)
ob: NFFN 052300Z 30011KT 9999 FEW030 BKN300 31/22 Q1011 NOSIG
cycle: 23

Station Type Date Time Source
NFFN TAF 2019/12/05 18:06 UTC NOAA

TAF NFFN 051702Z 0518/0618 13008KT 9999 -SHRA SCT026 BKN046
BECMG 0521/0523 30012KT PROB40
TEMPO 0600/0608 5000 TSRA BKN015 FEW018CB
BECMG 0604/0606 09005KT

Example: see airport list